Suncook, New Hampshire
Current Conditions -  °F | °C
As of 10:51 AM on Thursday 30 Oct 2014 (Local Time) from KCON Reporting Station
Overcast Overcast  
Wind Chill: 48°   Ceiling: 8000
Heat Index: 48°   Visibility: 10mi
Dew Point: 42°   Wind: 0mph
Humidity: 80%   Direction: NA
Pressure: 29.93"   Gusts: NA
Location:  43.12°N, 71.45°W
Report Text: KCON 301451Z AUTO 00000KT 10SM OVC080 09/06 A2993 RMK AO2 SLP138 T00890056 50003
Loading
Personal Weather Stations






























Interactive Weather Map
Tropical Storm Tracking
New forecast layout! Learn more

10-Day Weather Forecast

Advertisements
Track Severe Weather on mobile